Time;durP1;ratioP1;P1;durP2;ratioP2;P2;SDS_P1;SDS_P2;PMS_P1;PMS_P2;Temp;Humidity;BMP_temperature;BMP_pressure;BME280_temperature;BME280_humidity;BME280_pressure;Samples;Min_cycle;Max_cycle;Signal;HPM_P1;HPM_P2
2021/12/31 00:01:42;;;;;;;0.40;0.40;;;;;;;6.17;99.29;99267.22;5065065;28;20029;-74
2021/12/31 00:04:07;;;;;;;0.30;0.30;;;;;;;6.17;99.12;99272.38;5063541;28;20021;-74
2021/12/31 00:06:32;;;;;;;0.32;0.32;;;;;;;6.14;99.24;99274.97;5064785;28;20082;-73
2021/12/31 00:08:58;;;;;;;0.30;0.30;;;;;;;6.08;99.26;99275.03;5064775;28;20482;-73
2021/12/31 00:11:23;;;;;;;0.30;0.30;;;;;;;6.01;99.18;99279.31;5064360;28;20064;-73
2021/12/31 00:13:49;;;;;;;0.35;0.35;;;;;;;5.97;99.09;99280.22;5064899;28;20025;-73
2021/12/31 00:16:14;;;;;;;0.30;0.30;;;;;;;5.97;99.22;99279.38;5064682;28;20443;-72
2021/12/31 00:18:39;;;;;;;0.30;0.30;;;;;;;5.93;99.05;99273.38;5064582;28;20097;-73
2021/12/31 00:21:05;;;;;;;0.40;0.40;;;;;;;5.91;99.30;99282.84;5064458;28;20028;-73
2021/12/31 00:23:30;;;;;;;0.40;0.40;;;;;;;5.93;99.54;99287.13;5064552;28;20043;-73
2021/12/31 00:25:55;;;;;;;0.40;0.40;;;;;;;5.93;99.33;99281.97;5064283;28;20420;-73
2021/12/31 00:28:21;;;;;;;0.40;0.40;;;;;;;5.91;99.40;99278.53;5064471;28;20021;-73
2021/12/31 00:30:52;;;;;;;0.40;0.40;;;;;;;5.85;99.40;99272.59;5062966;28;20025;-73
2021/12/31 00:33:18;;;;;;;0.30;0.30;;;;;;;5.82;99.32;99281.19;5064813;28;20044;-74
2021/12/31 00:35:43;;;;;;;0.40;0.40;;;;;;;5.81;99.42;99287.22;5064078;28;20025;-73
2021/12/31 00:38:09;;;;;;;0.40;0.40;;;;;;;5.81;99.52;99284.63;5064446;28;20029;-73
2021/12/31 00:40:35;;;;;;;0.32;0.32;;;;;;;5.79;99.70;99292.38;5062864;28;20120;-74
2021/12/31 00:43:01;;;;;;;0.30;0.30;;;;;;;5.75;99.69;99290.66;5064358;28;20021;-73
2021/12/31 00:45:27;;;;;;;0.40;0.40;;;;;;;5.80;99.51;99298.34;5064022;28;20036;-75
2021/12/31 00:47:52;;;;;;;0.40;0.40;;;;;;;5.79;99.73;99304.38;5062841;28;20044;-74
2021/12/31 00:50:18;;;;;;;0.40;0.40;;;;;;;5.77;99.38;99303.53;5063867;28;20021;-74
2021/12/31 00:52:44;;;;;;;0.35;0.35;;;;;;;5.77;99.67;99299.25;5064315;28;20104;-74
2021/12/31 00:55:11;;;;;;;0.40;0.40;;;;;;;5.76;99.78;99296.69;5062732;28;20044;-74
2021/12/31 00:57:36;;;;;;;0.38;0.38;;;;;;;5.77;99.78;99303.53;5064033;28;20111;-74
2021/12/31 01:00:04;;;;;;;0.40;0.40;;;;;;;5.81;99.98;99310.41;5063994;28;20013;-74
2021/12/31 01:02:30;;;;;;;0.40;0.40;;;;;;;5.82;99.87;99300.06;5063943;28;20112;-74
2021/12/31 01:04:56;;;;;;;0.40;0.40;;;;;;;5.83;99.98;99303.53;5063726;28;20067;-74
2021/12/31 01:07:22;;;;;;;0.40;0.40;;;;;;;5.88;100.00;99306.91;5063737;28;20024;-75
2021/12/31 01:09:47;;;;;;;0.32;0.32;;;;;;;5.95;100.00;99308.59;5063501;28;20036;-74
2021/12/31 01:12:14;;;;;;;0.40;0.40;;;;;;;5.94;100.00;99322.31;5063285;28;20045;-75
2021/12/31 01:14:53;;;;;;;0.40;0.40;;;;;;;6.02;100.00;99322.25;5063669;28;20021;-75
2021/12/31 01:17:24;;;;;;;0.40;0.40;;;;;;;6.04;100.00;99317.97;5062300;28;20025;-75
2021/12/31 01:19:50;;;;;;;0.40;0.40;;;;;;;6.05;100.00;99311.94;5063697;28;20084;-74
2021/12/31 01:22:25;;;;;;;0.40;0.40;;;;;;;6.11;100.00;99313.66;5063575;28;20051;-75
2021/12/31 01:24:50;;;;;;;0.40;0.40;;;;;;;6.12;100.00;99315.34;5063535;28;20056;-74
2021/12/31 01:27:16;;;;;;;0.40;0.40;;;;;;;6.12;100.00;99314.50;5063455;28;20021;-74
2021/12/31 01:29:42;;;;;;;0.30;0.30;;;;;;;6.13;100.00;99300.75;5062286;28;20511;-75
2021/12/31 01:32:08;;;;;;;0.30;0.30;;;;;;;6.10;99.90;99291.34;5063532;28;20112;-75
2021/12/31 01:34:33;;;;;;;0.40;0.40;;;;;;;6.11;100.00;99294.75;5062214;28;20013;-75
2021/12/31 01:36:59;;;;;;;0.40;0.40;;;;;;;6.07;100.00;99281.06;5063288;28;20075;-75
2021/12/31 01:39:26;;;;;;;0.40;0.40;;;;;;;6.09;100.00;99291.34;5063510;28;20028;-74
2021/12/31 01:41:53;;;;;;;0.40;0.40;;;;;;;6.07;99.82;99294.78;5063218;28;20037;-73
2021/12/31 01:44:20;;;;;;;0.40;0.40;;;;;;;6.07;100.00;99294.78;5063412;28;20024;-74
2021/12/31 01:46:57;;;;;;;0.40;0.40;;;;;;;6.07;100.00;99283.63;5063035;28;20029;-75
2021/12/31 01:49:33;;;;;;;0.40;0.40;;;;;;;6.09;100.00;99296.50;5062904;28;20096;-75
2021/12/31 01:51:58;;;;;;;0.40;0.40;;;;;;;6.11;100.00;99292.16;5063224;28;20029;-75
2021/12/31 01:54:24;;;;;;;0.38;0.38;;;;;;;6.07;100.00;99296.50;5063201;28;20074;-75
2021/12/31 01:56:51;;;;;;;0.30;0.30;;;;;;;6.09;100.00;99294.75;5062993;28;20029;-75
2021/12/31 01:59:18;;;;;;;0.32;0.32;;;;;;;6.07;100.00;99289.63;5063125;28;20451;-75
2021/12/31 02:01:45;;;;;;;0.30;0.30;;;;;;;6.07;100.00;99286.22;5064796;28;20031;-75
2021/12/31 02:04:10;;;;;;;0.40;0.40;;;;;;;6.15;100.00;99302.44;5067212;28;20035;-75
2021/12/31 02:06:36;;;;;;;0.40;0.40;;;;;;;6.17;100.00;99295.56;5067254;28;20045;-76
2021/12/31 02:09:04;;;;;;;0.30;0.30;;;;;;;6.17;100.00;99292.13;5067161;28;20070;-75
2021/12/31 02:11:30;;;;;;;0.40;0.40;;;;;;;6.18;100.00;99294.69;5066588;28;20051;-75
2021/12/31 02:13:56;;;;;;;0.40;0.40;;;;;;;6.20;100.00;99287.78;5067063;28;20068;-76
2021/12/31 02:16:22;;;;;;;0.40;0.40;;;;;;;6.17;100.00;99295.56;5066827;28;20064;-76
2021/12/31 02:18:47;;;;;;;0.40;0.40;;;;;;;6.18;100.00;99299.00;5066858;28;20024;-75
2021/12/31 02:21:14;;;;;;;0.30;0.30;;;;;;;6.24;100.00;99296.38;5066746;28;20024;-75
2021/12/31 02:23:47;;;;;;;0.40;0.40;;;;;;;6.26;100.00;99301.50;5065735;28;20025;-75
2021/12/31 02:26:13;;;;;;;0.30;0.30;;;;;;;6.26;100.00;99302.34;5065434;28;20032;-76
2021/12/31 02:28:39;;;;;;;0.40;0.40;;;;;;;6.24;100.00;99290.34;5065428;28;20013;-76
2021/12/31 02:31:05;;;;;;;0.40;0.40;;;;;;;6.29;100.00;99294.59;5066896;28;20036;-76
2021/12/31 02:33:31;;;;;;;0.40;0.40;;;;;;;6.30;100.00;99292.88;5066630;28;20033;-76
2021/12/31 02:35:58;;;;;;;0.40;0.40;;;;;;;6.29;100.00;99293.75;5066425;28;20048;-76
2021/12/31 02:38:24;;;;;;;0.40;0.40;;;;;;;6.29;100.00;99292.00;5065225;28;20024;-75
2021/12/31 02:40:49;;;;;;;0.40;0.40;;;;;;;6.29;100.00;99284.28;5066498;28;20009;-75
2021/12/31 02:43:15;;;;;;;0.40;0.40;;;;;;;6.29;100.00;99296.31;5066499;28;20541;-74
2021/12/31 02:45:42;;;;;;;0.40;0.40;;;;;;;6.29;100.00;99288.59;5066214;28;20108;-74
2021/12/31 02:48:07;;;;;;;0.40;0.40;;;;;;;6.28;100.00;99292.88;5066352;28;20025;-74
2021/12/31 02:50:38;;;;;;;0.40;0.40;;;;;;;6.29;100.00;99283.44;5066029;28;20033;-74
2021/12/31 02:53:11;;;;;;;0.40;0.40;;;;;;;6.31;100.00;99279.13;5066247;28;20033;-75
2021/12/31 02:55:37;;;;;;;0.40;0.40;;;;;;;6.31;100.00;99289.44;5065968;28;20389;-75
2021/12/31 02:58:04;;;;;;;0.40;0.40;;;;;;;6.27;100.00;99285.16;5066142;28;20032;-75
2021/12/31 03:00:31;;;;;;;0.30;0.30;;;;;;;6.32;100.00;99294.59;5066286;28;20020;-75
2021/12/31 03:02:59;;;;;;;0.40;0.40;;;;;;;6.32;100.00;99289.44;5066172;28;20056;-75
2021/12/31 03:05:26;;;;;;;0.35;0.35;;;;;;;6.36;100.00;99300.53;5066117;28;20160;-75
2021/12/31 03:07:53;;;;;;;0.40;0.40;;;;;;;6.38;100.00;99303.09;5065925;28;20025;-75
2021/12/31 03:10:20;;;;;;;0.40;0.40;;;;;;;6.41;100.00;99292.75;5065745;28;20025;-75
2021/12/31 03:12:50;;;;;;;0.32;0.32;;;;;;;6.40;100.00;99312.56;5064263;28;20053;-76
2021/12/31 03:15:16;;;;;;;0.40;0.40;;;;;;;6.35;100.00;99306.56;5065736;28;20025;-75
2021/12/31 03:17:44;;;;;;;0.38;0.38;;;;;;;6.38;100.00;99305.69;5064703;28;20122;-73
2021/12/31 03:20:13;;;;;;;0.40;0.40;;;;;;;6.39;100.00;99318.56;5065820;28;20025;-75
2021/12/31 03:22:39;;;;;;;0.40;0.40;;;;;;;6.41;100.00;99319.41;5065840;28;20021;-74
2021/12/31 03:25:06;;;;;;;0.40;0.40;;;;;;;6.39;100.00;99312.56;5065560;28;20098;-74
2021/12/31 03:27:32;;;;;;;0.40;0.40;;;;;;;6.38;100.00;99308.25;5065526;28;20079;-75
2021/12/31 03:29:58;;;;;;;0.40;0.40;;;;;;;6.40;100.00;99322.00;5065526;28;20481;-75
2021/12/31 03:32:23;;;;;;;0.40;0.40;;;;;;;6.39;100.00;99318.56;5065748;28;20025;-75
2021/12/31 03:34:48;;;;;;;0.40;0.40;;;;;;;6.39;100.00;99326.28;5065344;28;20044;-75
2021/12/31 03:37:14;;;;;;;0.40;0.40;;;;;;;6.33;100.00;99310.88;5063734;28;20056;-75
2021/12/31 03:39:39;;;;;;;0.40;0.40;;;;;;;6.37;100.00;99319.47;5065340;28;20031;-75
2021/12/31 03:42:05;;;;;;;0.32;0.32;;;;;;;6.35;100.00;99322.03;5065168;28;20029;-75
2021/12/31 03:44:30;;;;;;;0.40;0.40;;;;;;;6.33;100.00;99321.19;5065099;28;20039;-75
2021/12/31 03:46:55;;;;;;;0.40;0.40;;;;;;;6.33;100.00;99310.88;5065021;28;20044;-75
2021/12/31 03:49:21;;;;;;;0.30;0.30;;;;;;;6.29;100.00;99311.78;5065143;28;20040;-75
2021/12/31 03:51:49;;;;;;;0.40;0.40;;;;;;;6.27;99.91;99305.78;5065401;28;20469;-75
2021/12/31 03:54:14;;;;;;;0.40;0.40;;;;;;;6.24;99.93;99300.66;5064170;28;20037;-75
2021/12/31 03:56:40;;;;;;;0.40;0.40;;;;;;;6.26;100.00;99306.66;5065057;28;20061;-75
2021/12/31 03:59:05;;;;;;;0.40;0.40;;;;;;;6.23;100.00;99311.84;5065212;28;20032;-75
2021/12/31 04:01:30;;;;;;;0.40;0.40;;;;;;;6.25;100.00;99310.09;5065217;28;20029;-75
2021/12/31 04:03:56;;;;;;;0.40;0.40;;;;;;;6.27;99.88;99323.81;5063731;28;20035;-74
2021/12/31 04:06:21;;;;;;;0.35;0.35;;;;;;;6.23;100.00;99317.00;5063587;28;20481;-76
2021/12/31 04:08:48;;;;;;;0.40;0.40;;;;;;;6.24;100.00;99318.69;5064970;28;20504;-75
2021/12/31 04:11:13;;;;;;;0.40;0.40;;;;;;;6.16;100.00;99296.44;5064865;28;20072;-75
2021/12/31 04:13:42;;;;;;;0.40;0.40;;;;;;;6.19;100.00;99303.28;5064670;28;20053;-74
2021/12/31 04:16:07;;;;;;;0.40;0.40;;;;;;;6.23;100.00;99309.28;5064533;28;20036;-75
2021/12/31 04:18:33;;;;;;;0.40;0.40;;;;;;;6.23;100.00;99314.41;5063429;28;20021;-75
2021/12/31 04:21:00;;;;;;;0.40;0.40;;;;;;;6.25;100.00;99312.66;5064754;28;20454;-74
2021/12/31 04:23:28;;;;;;;0.40;0.40;;;;;;;6.25;100.00;99305.78;5063411;28;20040;-75
2021/12/31 04:25:55;;;;;;;0.30;0.30;;;;;;;6.26;100.00;99298.94;5064257;28;20029;-75
2021/12/31 04:28:21;;;;;;;0.40;0.40;;;;;;;6.24;100.00;99296.38;5064833;28;20032;-74
2021/12/31 04:30:46;;;;;;;0.40;0.40;;;;;;;6.22;100.00;99294.66;5064261;28;20025;-75
2021/12/31 04:33:11;;;;;;;0.40;0.40;;;;;;;6.22;100.00;99308.41;5064380;28;20373;-74
2021/12/31 04:35:37;;;;;;;0.40;0.40;;;;;;;6.20;100.00;99313.56;5064196;28;20080;-75
2021/12/31 04:38:02;;;;;;;0.40;0.40;;;;;;;6.22;100.00;99312.69;5064372;28;20036;-75
2021/12/31 04:40:27;;;;;;;0.40;0.40;;;;;;;6.20;100.00;99315.28;5062803;28;20062;-74
2021/12/31 04:42:53;;;;;;;0.40;0.40;;;;;;;6.19;99.90;99309.28;5064364;28;20051;-77
2021/12/31 04:45:19;;;;;;;0.40;0.40;;;;;;;6.20;100.00;99308.41;5064271;28;20032;-75
2021/12/31 04:47:45;;;;;;;0.40;0.40;;;;;;;6.17;99.75;99299.84;5062699;28;20516;-75
2021/12/31 04:50:11;;;;;;;0.40;0.40;;;;;;;6.14;100.00;99297.28;5063831;28;20061;-75
2021/12/31 04:52:37;;;;;;;0.30;0.30;;;;;;;6.14;99.84;99293.00;5064208;28;20097;-75
2021/12/31 04:55:03;;;;;;;0.40;0.40;;;;;;;6.09;99.79;99294.75;5063766;28;20596;-74
2021/12/31 04:57:28;;;;;;;0.40;0.40;;;;;;;6.10;99.54;99288.75;5064077;28;20047;-75
2021/12/31 04:59:54;;;;;;;0.40;0.40;;;;;;;6.10;99.87;99293.91;5062705;28;20017;-76
2021/12/31 05:02:19;;;;;;;0.40;0.40;;;;;;;6.13;99.83;99291.31;5063965;28;20028;-76
2021/12/31 05:04:45;;;;;;;0.40;0.40;;;;;;;6.14;100.00;99292.13;5063949;28;20084;-76
2021/12/31 05:07:10;;;;;;;0.40;0.40;;;;;;;6.15;99.97;99286.97;5062373;28;20025;-75
2021/12/31 05:09:36;;;;;;;0.40;0.40;;;;;;;6.14;99.98;99282.69;5062310;28;20074;-74
2021/12/31 05:12:03;;;;;;;0.40;0.40;;;;;;;6.10;100.00;99280.16;5063217;28;20049;-75
2021/12/31 05:14:29;;;;;;;0.40;0.40;;;;;;;6.11;99.83;99272.41;5062375;28;20025;-75
2021/12/31 05:16:54;;;;;;;0.40;0.40;;;;;;;6.10;100.00;99263.00;5062167;28;20027;-75
2021/12/31 05:19:20;;;;;;;0.40;0.40;;;;;;;6.14;99.90;99269.81;5063616;28;20012;-74
2021/12/31 05:21:45;;;;;;;0.30;0.30;;;;;;;6.15;100.00;99279.25;5063569;28;20052;-74
2021/12/31 05:24:10;;;;;;;0.40;0.40;;;;;;;6.12;100.00;99268.97;5063991;28;20041;-73
2021/12/31 05:26:36;;;;;;;0.40;0.40;;;;;;;6.14;99.70;99277.53;5063384;28;20025;-75
2021/12/31 05:29:02;;;;;;;0.40;0.40;;;;;;;6.12;100.00;99253.50;5063578;28;20066;-75
2021/12/31 05:31:28;;;;;;;0.40;0.40;;;;;;;6.13;100.00;99256.94;5063894;28;20032;-74
2021/12/31 05:33:53;;;;;;;0.40;0.40;;;;;;;6.11;100.00;99262.09;5063561;28;20386;-76
2021/12/31 05:36:18;;;;;;;0.40;0.40;;;;;;;6.15;99.95;99260.38;5062475;28;20115;-76
2021/12/31 05:38:44;;;;;;;0.40;0.40;;;;;;;6.15;100.00;99262.94;5062152;28;20028;-75
2021/12/31 05:41:10;;;;;;;0.30;0.30;;;;;;;6.17;100.00;99254.31;5061906;28;20036;-75
2021/12/31 05:43:35;;;;;;;0.40;0.40;;;;;;;6.21;100.00;99244.84;5063739;28;20081;-76
2021/12/31 05:46:01;;;;;;;0.40;0.40;;;;;;;6.22;100.00;99230.22;5063452;28;20029;-75
2021/12/31 05:48:26;;;;;;;0.40;0.40;;;;;;;6.22;100.00;99220.78;5063666;28;20489;-74
2021/12/31 05:50:52;;;;;;;0.40;0.40;;;;;;;6.19;100.00;99220.81;5063283;28;20017;-75
2021/12/31 05:53:17;;;;;;;0.30;0.30;;;;;;;6.24;100.00;99229.34;5063589;28;20021;-76
2021/12/31 05:55:42;;;;;;;0.40;0.40;;;;;;;6.24;100.00;99229.34;5063089;28;20025;-74
2021/12/31 05:58:08;;;;;;;0.40;0.40;;;;;;;6.21;100.00;99229.38;5062182;28;20021;-74
2021/12/31 06:00:34;;;;;;;0.40;0.40;;;;;;;6.19;99.87;99234.56;5063376;28;20017;-76
2021/12/31 06:03:00;;;;;;;0.40;0.40;;;;;;;6.20;100.00;99236.25;5063247;28;20032;-75
2021/12/31 06:05:27;;;;;;;0.30;0.30;;;;;;;6.17;99.96;99236.28;5063255;28;20021;-75
2021/12/31 06:07:55;;;;;;;0.40;0.40;;;;;;;6.18;99.97;99237.97;5063374;28;20025;-76
2021/12/31 06:10:22;;;;;;;0.40;0.40;;;;;;;6.20;100.00;99238.81;5063330;28;20079;-76
2021/12/31 06:12:49;;;;;;;0.40;0.40;;;;;;;6.22;99.94;99243.97;5063304;28;20111;-75
2021/12/31 06:15:17;;;;;;;0.32;0.32;;;;;;;6.18;100.00;99242.31;5063333;28;20070;-74
2021/12/31 06:17:43;;;;;;;0.30;0.30;;;;;;;6.22;100.00;99237.94;5063386;28;20027;-74
2021/12/31 06:20:09;;;;;;;0.40;0.40;;;;;;;6.26;100.00;99244.81;5063887;28;20040;-74
2021/12/31 06:22:35;;;;;;;0.40;0.40;;;;;;;6.28;100.00;99238.75;5063641;28;20495;-75
2021/12/31 06:25:00;;;;;;;0.40;0.40;;;;;;;6.34;100.00;99240.44;5063588;28;20052;-74
2021/12/31 06:27:25;;;;;;;0.40;0.40;;;;;;;6.38;100.00;99236.06;5063939;28;20075;-74
2021/12/31 06:29:51;;;;;;;0.40;0.40;;;;;;;6.34;100.00;99237.84;5063636;28;20017;-74
2021/12/31 06:32:16;;;;;;;0.40;0.40;;;;;;;6.40;100.00;99237.78;5062769;28;20032;-74
2021/12/31 06:34:41;;;;;;;0.40;0.40;;;;;;;6.49;100.00;99243.69;5069893;28;20032;-73
2021/12/31 06:37:07;;;;;;;0.40;0.40;;;;;;;6.53;100.00;99242.81;5068922;28;20051;-77
2021/12/31 06:39:35;;;;;;;0.35;0.35;;;;;;;6.57;100.00;99235.03;5061912;28;20097;-76
2021/12/31 06:42:03;;;;;;;0.30;0.30;;;;;;;6.60;100.00;99244.44;5063077;28;20031;-76
2021/12/31 06:44:29;;;;;;;0.30;0.30;;;;;;;6.62;100.00;99245.28;5063221;28;20064;-77
2021/12/31 06:46:54;;;;;;;0.40;0.40;;;;;;;6.64;100.00;99240.97;5063027;28;20033;-77
2021/12/31 06:49:20;;;;;;;0.40;0.40;;;;;;;6.63;100.00;99231.50;5066695;28;20028;-78
2021/12/31 06:51:45;;;;;;;0.40;0.40;;;;;;;6.70;100.00;99242.63;5066417;28;20032;-76
2021/12/31 06:54:10;;;;;;;0.40;0.40;;;;;;;6.72;100.00;99245.19;5066731;28;20025;-77
2021/12/31 06:56:35;;;;;;;0.30;0.30;;;;;;;6.73;100.00;99247.75;5066395;28;20017;-77
2021/12/31 06:59:01;;;;;;;0.40;0.40;;;;;;;6.69;100.00;99236.59;5065307;28;20040;-76
2021/12/31 07:01:26;;;;;;;0.40;0.40;;;;;;;6.65;100.00;99232.34;5065220;28;20025;-77
2021/12/31 07:03:51;;;;;;;0.40;0.40;;;;;;;6.75;100.00;99237.41;5066508;28;20035;-77
2021/12/31 07:06:17;;;;;;;0.30;0.30;;;;;;;6.75;100.00;99242.56;5066254;28;20039;-76
2021/12/31 07:08:42;;;;;;;0.40;0.40;;;;;;;6.75;100.00;99238.28;5066241;28;20028;-77
2021/12/31 07:11:08;;;;;;;0.40;0.40;;;;;;;6.68;100.00;99224.59;5066042;28;20030;-77
2021/12/31 07:13:35;;;;;;;0.30;0.30;;;;;;;6.75;100.00;99221.94;5066424;28;20084;-76
2021/12/31 07:16:01;;;;;;;0.38;0.38;;;;;;;6.69;100.00;99228.03;5066150;28;20029;-76
2021/12/31 07:18:26;;;;;;;0.30;0.30;;;;;;;6.70;100.00;99229.72;5064566;28;20025;-77
2021/12/31 07:20:52;;;;;;;0.40;0.40;;;;;;;6.65;100.00;99222.03;5066071;28;20028;-77
2021/12/31 07:23:20;;;;;;;0.40;0.40;;;;;;;6.62;100.00;99221.22;5064637;28;20032;-76
2021/12/31 07:25:45;;;;;;;0.40;0.40;;;;;;;6.64;100.00;99230.66;5064210;28;20017;-77
2021/12/31 07:28:12;;;;;;;0.40;0.40;;;;;;;6.64;100.00;99228.09;5064752;28;20063;-76
2021/12/31 07:30:38;;;;;;;0.30;0.30;;;;;;;6.62;100.00;99227.25;5065802;28;20025;-76
2021/12/31 07:33:04;;;;;;;0.40;0.40;;;;;;;6.62;100.00;99227.25;5065682;28;20087;-76
2021/12/31 07:35:31;;;;;;;0.40;0.40;;;;;;;6.60;100.00;99222.97;5065518;28;20021;-78
2021/12/31 07:37:58;;;;;;;0.40;0.40;;;;;;;6.61;100.00;99229.84;5065793;28;20024;-76
2021/12/31 07:40:28;;;;;;;0.40;0.40;;;;;;;6.61;100.00;99224.69;5065575;28;20083;-76
2021/12/31 07:42:53;;;;;;;0.40;0.40;;;;;;;6.61;100.00;99232.41;5065559;28;20023;-76
2021/12/31 07:45:20;;;;;;;0.40;0.40;;;;;;;6.59;100.00;99235.00;5065459;28;20080;-76
2021/12/31 07:47:45;;;;;;;0.40;0.40;;;;;;;6.54;100.00;99229.03;5065510;28;20074;-76
2021/12/31 07:50:11;;;;;;;0.32;0.32;;;;;;;6.60;100.00;99234.13;5065319;28;20021;-75
2021/12/31 07:52:37;;;;;;;0.30;0.30;;;;;;;6.56;100.00;99227.31;5065656;28;20028;-75
2021/12/31 07:55:03;;;;;;;0.38;0.38;;;;;;;6.52;100.00;99223.91;5065363;28;20056;-75
2021/12/31 07:57:29;;;;;;;0.40;0.40;;;;;;;6.53;100.00;99222.19;5064914;28;20036;-76
2021/12/31 07:59:54;;;;;;;0.40;0.40;;;;;;;6.58;100.00;99235.91;5063315;28;20017;-77
2021/12/31 08:02:19;;;;;;;0.40;0.40;;;;;;;6.53;100.00;99228.19;5065337;28;20021;-76
2021/12/31 08:04:44;;;;;;;0.40;0.40;;;;;;;6.54;100.00;99239.34;5065032;28;20028;-76
2021/12/31 08:07:10;;;;;;;0.40;0.40;;;;;;;6.61;100.00;99255.63;5064811;28;20021;-77
2021/12/31 08:09:35;;;;;;;0.30;0.30;;;;;;;6.59;100.00;99247.91;5064936;28;20125;-76
2021/12/31 08:12:00;;;;;;;0.40;0.40;;;;;;;6.62;100.00;99247.88;5064720;28;20053;-77
2021/12/31 08:14:26;;;;;;;0.40;0.40;;;;;;;6.66;100.00;99253.84;5064922;28;20028;-77
2021/12/31 08:16:51;;;;;;;0.40;0.40;;;;;;;6.67;100.00;99251.25;5063500;28;20025;-77
2021/12/31 08:19:16;;;;;;;0.40;0.40;;;;;;;6.65;100.00;99255.56;5064935;28;20016;-77
2021/12/31 08:21:42;;;;;;;0.40;0.40;;;;;;;6.61;100.00;99250.47;5064896;28;20453;-78
2021/12/31 08:24:07;;;;;;;0.40;0.40;;;;;;;6.64;100.00;99256.44;5063360;28;20021;-77
2021/12/31 08:26:32;;;;;;;0.40;0.40;;;;;;;6.66;100.00;99262.44;5064578;28;20092;-77
2021/12/31 08:28:57;;;;;;;0.30;0.30;;;;;;;6.64;100.00;99266.78;5064494;28;20108;-77
2021/12/31 08:31:23;;;;;;;0.40;0.40;;;;;;;6.62;100.00;99265.06;5064473;28;20136;-78
2021/12/31 08:33:51;;;;;;;0.40;0.40;;;;;;;6.54;99.97;99263.44;5064679;28;20028;-78
2021/12/31 08:36:16;;;;;;;0.40;0.40;;;;;;;6.55;99.88;99266.88;5064457;28;20088;-78
2021/12/31 08:38:42;;;;;;;0.45;0.45;;;;;;;6.48;99.62;99257.47;5064641;28;20075;-76
2021/12/31 08:41:07;;;;;;;0.40;0.40;;;;;;;6.47;99.80;99263.50;5064519;28;20092;-77
2021/12/31 08:43:33;;;;;;;0.40;0.40;;;;;;;6.41;99.66;99261.81;5064499;28;20032;-77
2021/12/31 08:45:58;;;;;;;0.40;0.40;;;;;;;6.28;99.78;99251.63;5064307;28;20052;-77
2021/12/31 08:48:24;;;;;;;0.40;0.40;;;;;;;6.34;99.62;99263.63;5064495;28;20021;-78
2021/12/31 08:50:49;;;;;;;0.40;0.40;;;;;;;6.33;99.78;99272.22;5064042;28;20545;-77
2021/12/31 08:53:14;;;;;;;0.40;0.40;;;;;;;6.20;99.78;99256.00;5062982;28;20084;-77
2021/12/31 08:55:40;;;;;;;0.40;0.40;;;;;;;6.30;99.75;99274.81;5063954;28;20086;-78
2021/12/31 08:58:06;;;;;;;0.40;0.40;;;;;;;6.26;99.80;99275.72;5064007;28;20031;-75
2021/12/31 09:00:31;;;;;;;0.40;0.40;;;;;;;6.25;99.78;99276.56;5064192;28;20021;-76
2021/12/31 09:02:56;;;;;;;0.40;0.40;;;;;;;6.24;99.54;99278.31;5064122;28;20033;-73
2021/12/31 09:05:22;;;;;;;0.40;0.40;;;;;;;6.16;99.66;99270.66;5063700;28;20142;-77
2021/12/31 09:07:49;;;;;;;0.40;0.40;;;;;;;6.16;99.75;99274.94;5062615;28;20017;-78
2021/12/31 09:10:16;;;;;;;0.40;0.40;;;;;;;6.23;99.83;99280.91;5063744;28;20313;-72
2021/12/31 09:12:44;;;;;;;0.40;0.40;;;;;;;6.25;99.90;99279.16;5063720;28;20055;-78
2021/12/31 09:15:10;;;;;;;0.40;0.40;;;;;;;6.26;99.94;99275.72;5063963;28;20024;-77
2021/12/31 09:17:35;;;;;;;0.40;0.40;;;;;;;6.23;100.00;99261.13;5062426;28;20024;-77
2021/12/31 09:20:02;;;;;;;0.40;0.40;;;;;;;6.27;100.00;99264.53;5063573;28;20481;-76
2021/12/31 09:22:27;;;;;;;0.40;0.40;;;;;;;6.34;100.00;99273.94;5063830;28;20025;-77
2021/12/31 09:24:53;;;;;;;0.40;0.40;;;;;;;6.38;100.00;99269.59;5063792;28;20035;-78
2021/12/31 09:27:18;;;;;;;0.35;0.35;;;;;;;6.40;100.00;99276.47;5061939;28;20025;-76
2021/12/31 09:29:44;;;;;;;0.40;0.40;;;;;;;6.47;100.00;99284.13;5063556;28;20058;-77
2021/12/31 09:32:10;;;;;;;0.40;0.40;;;;;;;6.49;100.00;99282.38;5063745;28;20021;-77
2021/12/31 09:34:35;;;;;;;0.40;0.40;;;;;;;6.48;100.00;99278.09;5063717;28;20029;-78
2021/12/31 09:37:01;;;;;;;0.30;0.30;;;;;;;6.54;100.00;99285.78;5063436;28;20389;-76
2021/12/31 09:39:26;;;;;;;0.30;0.30;;;;;;;6.54;100.00;99280.63;5063593;28;20017;-76
2021/12/31 09:41:51;;;;;;;0.40;0.40;;;;;;;6.56;100.00;99284.91;5063492;28;20021;-77
2021/12/31 09:44:20;;;;;;;0.40;0.40;;;;;;;6.55;100.00;99278.03;5063624;28;20373;-77
2021/12/31 09:46:45;;;;;;;0.40;0.40;;;;;;;6.56;100.00;99284.03;5063585;28;20021;-79
2021/12/31 09:49:10;;;;;;;0.30;0.30;;;;;;;6.59;100.00;99291.75;5063400;28;20021;-78
2021/12/31 09:51:41;;;;;;;0.30;0.30;;;;;;;6.61;100.00;99284.00;5063359;28;20364;-77
2021/12/31 09:54:06;;;;;;;0.40;0.40;;;;;;;6.58;100.00;99282.31;5063477;28;20028;-77
2021/12/31 09:56:37;;;;;;;0.40;0.40;;;;;;;6.55;100.00;99277.19;5063313;28;20122;-77
2021/12/31 09:59:02;;;;;;;0.40;0.40;;;;;;;6.54;100.00;99267.72;5063446;28;20404;-77
2021/12/31 10:01:28;;;;;;;0.40;0.40;;;;;;;6.49;100.00;99260.03;5063325;28;20029;-77
2021/12/31 10:03:56;;;;;;;0.40;0.40;;;;;;;6.53;100.00;99259.13;5063427;28;20016;-78
2021/12/31 10:06:22;;;;;;;0.35;0.35;;;;;;;6.60;100.00;99266.81;5063138;28;20025;-77
2021/12/31 10:08:48;;;;;;;0.40;0.40;;;;;;;6.60;100.00;99265.06;5063534;28;20029;-77
2021/12/31 10:11:20;;;;;;;0.32;0.32;;;;;;;6.58;100.00;99261.69;5061732;28;20021;-78
2021/12/31 10:13:45;;;;;;;0.40;0.40;;;;;;;6.59;100.00;99265.09;5063249;28;20041;-79
2021/12/31 10:16:36;;;;;;;0.40;0.40;;;;;;;6.58;100.00;99256.53;5062990;28;20014;-76
2021/12/31 10:19:08;;;;;;;0.40;0.40;;;;;;;6.58;100.00;99261.69;5061832;28;20443;-76
2021/12/31 10:21:46;;;;;;;0.40;0.40;;;;;;;6.53;100.00;99261.69;5063390;28;20025;-71
2021/12/31 10:24:34;;;;;;;0.40;0.40;;;;;;;6.60;100.00;99267.66;5066812;28;20081;-76
2021/12/31 10:27:19;;;;;;;0.40;0.40;;;;;;;6.63;100.00;99271.94;5066568;28;20021;-77
2021/12/31 10:29:52;;;;;;;0.40;0.40;;;;;;;6.61;100.00;99258.19;5066949;28;20025;-76
2021/12/31 10:32:18;;;;;;;0.40;0.40;;;;;;;6.66;100.00;99259.84;5066767;28;20031;-77
2021/12/31 10:34:43;;;;;;;0.40;0.40;;;;;;;6.70;100.00;99265.84;5067049;28;20025;-76
2021/12/31 10:37:26;;;;;;;0.40;0.40;;;;;;;6.73;100.00;99270.09;5066875;28;20075;-77
2021/12/31 10:39:57;;;;;;;0.40;0.40;;;;;;;6.74;100.00;99258.94;5066895;28;20032;-78
2021/12/31 10:42:28;;;;;;;0.35;0.35;;;;;;;6.78;100.00;99266.63;5066616;28;20028;-77
2021/12/31 10:44:54;;;;;;;0.40;0.40;;;;;;;6.78;100.00;99258.88;5066509;28;20028;-77
2021/12/31 10:47:21;;;;;;;0.40;0.40;;;;;;;6.85;100.00;99274.28;5066464;28;20085;-77
2021/12/31 10:49:55;;;;;;;0.40;0.40;;;;;;;6.89;100.00;99269.06;5066359;28;20029;-77
2021/12/31 10:52:28;;;;;;;0.40;0.40;;;;;;;6.90;100.00;99265.59;5064918;28;20084;-77
2021/12/31 10:55:04;;;;;;;0.40;0.40;;;;;;;6.92;100.00;99268.16;5066265;28;20032;-77
2021/12/31 10:57:35;;;;;;;0.40;0.40;;;;;;;6.96;100.00;99275.00;5065969;28;20389;-77
2021/12/31 11:00:01;;;;;;;0.40;0.40;;;;;;;7.00;100.00;99280.97;5066495;28;20059;-77
2021/12/31 11:02:26;;;;;;;0.40;0.40;;;;;;;6.97;100.00;99270.69;5066329;28;20029;-76
2021/12/31 11:04:52;;;;;;;0.40;0.40;;;;;;;6.98;100.00;99278.41;5066428;28;20047;-77
2021/12/31 11:07:18;;;;;;;0.40;0.40;;;;;;;7.01;100.00;99286.13;5066213;28;20092;-76
2021/12/31 11:09:44;;;;;;;0.40;0.40;;;;;;;7.00;100.00;99293.88;5066166;28;20029;-76
2021/12/31 11:12:12;;;;;;;0.30;0.30;;;;;;;7.01;100.00;99304.19;5064350;28;20049;-76
2021/12/31 11:14:37;;;;;;;0.30;0.30;;;;;;;7.00;100.00;99301.63;5066118;28;20054;-77
2021/12/31 11:17:03;;;;;;;0.40;0.40;;;;;;;6.94;100.00;99293.09;5065839;28;20052;-77
2021/12/31 11:19:29;;;;;;;0.40;0.40;;;;;;;7.02;100.00;99289.56;5066213;28;20101;-77
2021/12/31 11:21:55;;;;;;;0.40;0.40;;;;;;;6.99;100.00;99281.84;5064477;28;20063;-77
2021/12/31 11:24:33;;;;;;;0.32;0.32;;;;;;;7.05;100.00;99286.94;5065931;28;20467;-77
2021/12/31 11:27:20;;;;;;;0.40;0.40;;;;;;;7.06;100.00;99283.50;5065533;28;20032;-77
2021/12/31 11:29:45;;;;;;;0.40;0.40;;;;;;;7.06;100.00;99276.59;5065431;28;20025;-77
2021/12/31 11:32:10;;;;;;;0.40;0.40;;;;;;;7.07;100.00;99274.88;5065707;28;20032;-77
2021/12/31 11:34:37;;;;;;;0.35;0.35;;;;;;;7.08;100.00;99281.75;5064603;28;20020;-77